Time;durP1;ratioP1;P1;durP2;ratioP2;P2;SDS_P1;SDS_P2;PMS_P1;PMS_P2;Temp;Humidity;BMP_temperature;BMP_pressure;BME280_temperature;BME280_humidity;BME280_pressure;Samples;Min_cycle;Max_cycle;Signal;HPM_P1;HPM_P2
2023/06/28 00:01:45;;;;;;;3.47;1.00;;;;;;;24.66;42.81;101831.97;5031767;28;20044;-71
2023/06/28 00:04:10;;;;;;;2.97;1.10;;;;;;;24.66;42.34;101837.28;5031464;28;20037;-69
2023/06/28 00:06:35;;;;;;;3.97;1.20;;;;;;;24.66;42.43;101833.75;5030977;28;20037;-69
2023/06/28 00:09:00;;;;;;;3.83;1.20;;;;;;;24.63;42.83;101833.06;5031401;28;20339;-70
2023/06/28 00:11:27;;;;;;;3.03;1.07;;;;;;;24.62;42.82;101830.56;5029680;28;20282;-70
2023/06/28 00:13:53;;;;;;;3.15;1.17;;;;;;;24.63;42.67;101834.91;5031598;28;20297;-72
2023/06/28 00:16:18;;;;;;;4.80;1.50;;;;;;;24.65;42.50;101840.09;5030819;28;20527;-70
2023/06/28 00:18:45;;;;;;;4.78;1.27;;;;;;;24.63;42.59;101840.25;5030751;28;20187;-69
2023/06/28 00:21:13;;;;;;;5.40;1.50;;;;;;;24.59;42.89;101837.03;5030927;28;20044;-72
2023/06/28 00:23:39;;;;;;;3.45;1.40;;;;;;;24.61;42.46;101843.06;5030899;28;20029;-71
2023/06/28 00:26:04;;;;;;;3.80;1.13;;;;;;;24.60;42.45;101837.88;5028814;28;20033;-70
2023/06/28 00:28:29;;;;;;;4.22;1.13;;;;;;;24.61;42.88;101844.88;5030850;28;20033;-70
2023/06/28 00:30:55;;;;;;;3.77;1.37;;;;;;;24.60;42.51;101837.88;5031666;28;20033;-69
2023/06/28 00:33:20;;;;;;;4.57;1.37;;;;;;;24.61;42.81;101839.56;5030332;28;20266;-69
2023/06/28 00:35:47;;;;;;;3.30;1.33;;;;;;;24.58;42.90;101835.34;5029843;28;20282;-70
2023/06/28 00:38:12;;;;;;;3.25;1.15;;;;;;;24.58;42.80;101842.50;5030046;28;20029;-71
2023/06/28 00:40:37;;;;;;;3.45;1.30;;;;;;;24.59;42.92;101841.50;5030980;28;20039;-70
2023/06/28 00:43:02;;;;;;;3.13;1.38;;;;;;;24.60;42.85;101848.53;5032869;28;20083;-69
2023/06/28 00:45:28;;;;;;;4.93;1.45;;;;;;;24.59;42.79;101852.16;5035262;28;20041;-71
2023/06/28 00:47:54;;;;;;;5.85;1.30;;;;;;;24.60;43.02;101845.84;5035164;28;20037;-68
2023/06/28 00:50:20;;;;;;;3.83;1.23;;;;;;;24.58;42.93;101840.66;5034727;28;20062;-72
2023/06/28 00:52:45;;;;;;;5.53;1.50;;;;;;;24.57;42.87;101846.16;5035846;28;20491;-69
2023/06/28 00:55:11;;;;;;;3.90;1.50;;;;;;;24.57;42.74;101838.97;5035311;28;20033;-71
2023/06/28 00:57:37;;;;;;;3.17;1.20;;;;;;;24.56;43.01;101839.09;5034825;28;20028;-69
2023/06/28 01:00:08;;;;;;;3.67;1.40;;;;;;;24.57;42.77;101838.16;5034278;28;20035;-69
2023/06/28 01:02:33;;;;;;;3.28;1.30;;;;;;;24.57;42.64;101843.47;5034516;28;20389;-70
2023/06/28 01:04:58;;;;;;;3.40;1.30;;;;;;;24.56;42.63;101831.09;5033247;28;20033;-72
2023/06/28 01:07:27;;;;;;;3.83;1.30;;;;;;;24.55;42.80;101842.75;5034409;28;20033;-70
2023/06/28 01:09:56;;;;;;;3.10;1.13;;;;;;;24.56;43.31;101847.09;5034430;28;20053;-73
2023/06/28 01:12:23;;;;;;;3.70;1.17;;;;;;;24.56;42.78;101847.97;5034988;28;20036;-70
2023/06/28 01:14:49;;;;;;;5.15;1.60;;;;;;;24.52;42.82;101851.03;5034348;28;20437;-68
2023/06/28 01:17:14;;;;;;;3.70;1.13;;;;;;;24.53;43.09;101844.69;5034545;28;20084;-69
2023/06/28 01:19:39;;;;;;;3.33;1.00;;;;;;;24.56;43.01;101847.97;5035367;28;20053;-70
2023/06/28 01:22:09;;;;;;;4.07;1.38;;;;;;;24.53;42.71;101842.03;5032476;28;20473;-72
2023/06/28 01:24:36;;;;;;;5.20;1.83;;;;;;;24.54;43.12;101839.22;5034248;28;20037;-69
2023/06/28 01:27:02;;;;;;;5.20;2.25;;;;;;;24.54;43.00;101836.56;5033725;28;20115;-71
2023/06/28 01:29:28;;;;;;;7.93;3.60;;;;;;;24.51;43.03;101836.84;5033658;28;20044;-71
2023/06/28 01:31:56;;;;;;;7.22;3.33;;;;;;;24.54;42.83;101843.72;5034233;28;20033;-70
2023/06/28 01:34:26;;;;;;;7.70;3.60;;;;;;;24.52;43.28;101846.53;5032123;28;20041;-69
2023/06/28 01:36:53;;;;;;;6.90;3.50;;;;;;;24.53;43.19;101832.25;5034045;28;20032;-71
2023/06/28 01:39:19;;;;;;;6.45;3.38;;;;;;;24.52;42.93;101835.88;5040935;28;20389;-70
2023/06/28 01:41:46;;;;;;;6.38;3.72;;;;;;;24.53;43.47;101831.38;5033465;28;20036;-72
2023/06/28 01:44:11;;;;;;;6.55;3.33;;;;;;;24.51;43.39;101828.03;5033753;28;21030;-71
2023/06/28 01:46:37;;;;;;;7.20;3.65;;;;;;;24.51;43.39;101828.84;5032128;28;20596;-71
2023/06/28 01:49:03;;;;;;;6.40;3.38;;;;;;;24.50;43.29;101829.88;5031875;28;20032;-72
2023/06/28 01:51:28;;;;;;;6.97;3.00;;;;;;;24.51;43.64;101823.53;5031323;28;20033;-71
2023/06/28 01:53:55;;;;;;;5.57;2.88;;;;;;;24.52;43.38;101827.88;5031290;28;20166;-71
2023/06/28 01:56:20;;;;;;;5.10;2.47;;;;;;;24.50;43.77;101827.19;5032525;28;20037;-70
2023/06/28 01:58:45;;;;;;;7.00;3.15;;;;;;;24.51;43.59;101828.03;5032224;28;20547;-71
2023/06/28 02:01:11;;;;;;;6.72;2.65;;;;;;;24.49;43.45;101824.69;5033742;28;20040;-70
2023/06/28 02:03:36;;;;;;;6.22;2.65;;;;;;;24.50;43.64;101826.34;5030745;28;20033;-72
2023/06/28 02:06:01;;;;;;;5.68;2.53;;;;;;;24.49;43.86;101822.00;5033306;28;20033;-70
2023/06/28 02:08:27;;;;;;;5.90;2.45;;;;;;;24.48;43.98;101818.50;5032686;28;20547;-72
2023/06/28 02:10:52;;;;;;;5.30;2.42;;;;;;;24.51;43.65;101817.38;5033416;28;20033;-72
2023/06/28 02:13:17;;;;;;;6.15;2.40;;;;;;;24.50;43.77;101816.53;5033395;28;20029;-70
2023/06/28 02:15:43;;;;;;;5.68;2.50;;;;;;;24.48;43.58;101813.16;5033387;28;20493;-72
2023/06/28 02:18:08;;;;;;;4.78;2.30;;;;;;;24.50;43.64;101821.00;5033602;28;20075;-71
2023/06/28 02:20:33;;;;;;;7.13;2.50;;;;;;;24.50;43.54;101816.53;5033224;28;20482;-71
2023/06/28 02:22:59;;;;;;;5.68;2.22;;;;;;;24.49;43.80;101808.69;5031831;28;20029;-70
2023/06/28 02:25:24;;;;;;;4.10;1.93;;;;;;;24.49;43.60;101808.69;5033582;28;20044;-70
2023/06/28 02:27:49;;;;;;;4.65;2.33;;;;;;;24.48;43.91;101807.00;5032312;28;20336;-71
2023/06/28 02:30:15;;;;;;;4.30;2.00;;;;;;;24.48;43.86;101810.50;5033398;28;21215;-71
2023/06/28 02:32:40;;;;;;;4.63;2.00;;;;;;;24.45;43.57;101798.31;5032490;28;20301;-72
2023/06/28 02:35:05;;;;;;;4.97;2.22;;;;;;;24.48;44.03;101799.00;5032364;28;20041;-69
2023/06/28 02:37:31;;;;;;;5.15;2.03;;;;;;;24.44;44.11;101799.28;5031648;28;20026;-71
2023/06/28 02:39:56;;;;;;;6.22;2.30;;;;;;;24.47;43.79;101803.50;5032264;28;20420;-68
2023/06/28 02:42:22;;;;;;;4.82;1.80;;;;;;;24.47;43.96;101799.97;5031992;28;20038;-70
2023/06/28 02:44:47;;;;;;;4.97;2.00;;;;;;;24.47;43.81;101805.31;5032288;28;20029;-70
2023/06/28 02:47:12;;;;;;;4.45;1.90;;;;;;;24.47;44.33;101808.84;5032009;28;20064;-70
2023/06/28 02:49:38;;;;;;;4.63;1.85;;;;;;;24.47;43.88;101803.50;5033108;28;20525;-71
2023/06/28 02:52:03;;;;;;;5.03;1.90;;;;;;;24.48;44.27;101804.34;5031882;28;20553;-71
2023/06/28 02:54:28;;;;;;;4.07;1.70;;;;;;;24.44;44.32;101801.94;5032925;28;20262;-71
2023/06/28 02:56:54;;;;;;;5.00;2.00;;;;;;;24.47;43.96;101802.66;5031924;28;20033;-71
2023/06/28 02:59:19;;;;;;;4.80;2.08;;;;;;;24.46;44.67;101809.81;5033077;28;20041;-70
2023/06/28 03:01:45;;;;;;;5.75;1.88;;;;;;;24.45;43.98;101803.66;5032516;28;20033;-71
2023/06/28 03:04:12;;;;;;;4.55;1.80;;;;;;;24.44;44.21;101809.94;5032242;28;20078;-70
2023/06/28 03:06:38;;;;;;;4.65;1.85;;;;;;;24.43;43.99;101802.97;5032954;28;20033;-70
2023/06/28 03:09:04;;;;;;;4.85;1.73;;;;;;;24.45;44.20;101802.81;5032912;28;20032;-71
2023/06/28 03:11:29;;;;;;;5.75;1.92;;;;;;;24.42;44.10;101795.09;5032186;28;20033;-71
2023/06/28 03:13:55;;;;;;;4.43;1.73;;;;;;;24.43;44.48;101802.97;5032365;28;20082;-71
2023/06/28 03:16:22;;;;;;;4.47;1.80;;;;;;;24.43;44.28;101808.28;5031664;28;20029;-70
2023/06/28 03:18:47;;;;;;;5.25;1.92;;;;;;;24.42;44.78;101801.28;5031761;28;20060;-71
2023/06/28 03:21:13;;;;;;;5.78;1.90;;;;;;;24.43;44.38;101797.63;5032246;28;20029;-70
2023/06/28 03:23:38;;;;;;;4.13;1.67;;;;;;;24.42;44.60;101803.09;5032067;28;20033;-70
2023/06/28 03:26:03;;;;;;;5.15;1.65;;;;;;;24.37;44.92;101790.22;5031801;28;20589;-69
2023/06/28 03:28:29;;;;;;;4.03;1.70;;;;;;;24.43;44.96;101794.97;5033070;28;20469;-71
2023/06/28 03:30:54;;;;;;;4.30;1.67;;;;;;;24.42;44.79;101797.78;5031907;28;20047;-71
2023/06/28 03:33:19;;;;;;;4.63;1.60;;;;;;;24.44;44.89;101795.78;5031838;28;20481;-70
2023/06/28 03:35:45;;;;;;;5.15;1.77;;;;;;;24.42;44.77;101789.78;5031455;28;20036;-70
2023/06/28 03:38:10;;;;;;;4.90;1.70;;;;;;;24.40;44.86;101789.91;5029826;28;20124;-70
2023/06/28 03:40:36;;;;;;;4.20;1.80;;;;;;;24.42;44.78;101789.78;5032204;28;20338;-71
2023/06/28 03:43:02;;;;;;;4.85;1.80;;;;;;;24.42;44.67;101795.09;5038928;28;20389;-70
2023/06/28 03:45:28;;;;;;;4.57;1.98;;;;;;;24.40;44.93;101794.38;5031687;28;20028;-71
2023/06/28 03:47:54;;;;;;;5.78;1.50;;;;;;;24.41;45.30;101794.25;5031366;28;20037;-71
2023/06/28 03:50:20;;;;;;;4.90;1.77;;;;;;;24.41;45.05;101793.41;5032626;28;20687;-70
2023/06/28 03:52:45;;;;;;;3.78;1.60;;;;;;;24.41;44.84;101793.41;5031646;28;20043;-69
2023/06/28 03:55:11;;;;;;;4.63;1.67;;;;;;;24.39;44.95;101785.56;5031265;28;20045;-69
2023/06/28 03:57:36;;;;;;;4.97;1.80;;;;;;;24.41;45.22;101788.09;5031010;28;20128;-70
2023/06/28 04:00:04;;;;;;;6.05;1.70;;;;;;;24.40;45.21;101783.72;5031845;28;20764;-71
2023/06/28 04:02:29;;;;;;;5.60;2.00;;;;;;;24.40;45.42;101781.94;5031256;28;20022;-70
2023/06/28 04:04:54;;;;;;;4.13;1.50;;;;;;;24.40;44.87;101778.41;5030974;28;20059;-70
2023/06/28 04:07:24;;;;;;;4.85;1.67;;;;;;;24.40;45.10;101784.59;5032082;28;20087;-70
2023/06/28 04:09:50;;;;;;;4.30;1.80;;;;;;;24.39;45.10;101780.25;5031141;28;20029;-70
2023/06/28 04:12:15;;;;;;;6.05;1.98;;;;;;;24.40;45.56;101778.41;5031562;28;20094;-70
2023/06/28 04:14:40;;;;;;;5.03;1.73;;;;;;;24.38;45.58;101775.06;5030066;28;20535;-71
2023/06/28 04:17:06;;;;;;;3.70;1.70;;;;;;;24.39;45.55;101774.09;5031331;28;20038;-71
2023/06/28 04:19:32;;;;;;;4.53;1.70;;;;;;;24.38;45.44;101775.88;5031016;28;20085;-71
2023/06/28 04:21:57;;;;;;;3.90;1.83;;;;;;;24.38;45.51;101777.72;5030943;28;20036;-72
2023/06/28 04:24:22;;;;;;;4.05;1.77;;;;;;;24.39;45.18;101780.25;5031212;28;20140;-70
2023/06/28 04:26:48;;;;;;;4.35;1.70;;;;;;;24.38;45.25;101778.53;5031191;28;20075;-69
2023/06/28 04:29:13;;;;;;;3.67;1.60;;;;;;;24.39;45.29;101779.41;5031667;28;20043;-71
2023/06/28 04:31:38;;;;;;;6.53;1.98;;;;;;;24.37;45.48;101773.38;5021704;28;20276;-70
2023/06/28 04:34:05;;;;;;;5.47;1.65;;;;;;;24.39;45.39;101784.75;5030977;28;20044;-72
2023/06/28 04:36:30;;;;;;;5.63;1.60;;;;;;;24.38;45.49;101781.22;5030300;28;20035;-72
2023/06/28 04:38:56;;;;;;;4.07;1.65;;;;;;;24.37;45.66;101776.88;5030696;28;20028;-70
2023/06/28 04:41:22;;;;;;;4.60;1.50;;;;;;;24.37;45.71;101784.03;5030548;28;20029;-71
2023/06/28 04:43:49;;;;;;;5.63;1.83;;;;;;;24.36;45.25;101780.53;5030534;28;20057;-69
2023/06/28 04:46:14;;;;;;;3.90;1.67;;;;;;;24.37;45.66;101790.22;5030290;28;20061;-71
2023/06/28 04:48:42;;;;;;;4.68;1.80;;;;;;;24.37;45.57;101784.88;5030408;28;20441;-70
2023/06/28 04:51:07;;;;;;;4.22;1.60;;;;;;;24.36;45.77;101777.88;5031115;28;20112;-71
2023/06/28 04:53:32;;;;;;;3.80;1.65;;;;;;;24.35;45.39;101776.16;5030106;28;20124;-69
2023/06/28 04:56:00;;;;;;;4.82;1.70;;;;;;;24.36;45.50;101779.69;5030490;28;20041;-69
2023/06/28 04:58:26;;;;;;;3.42;1.55;;;;;;;24.36;45.75;101782.34;5030517;28;20029;-69
2023/06/28 05:00:51;;;;;;;3.65;1.70;;;;;;;24.35;45.70;101786.00;5030369;28;20037;-69
2023/06/28 05:03:17;;;;;;;4.97;1.77;;;;;;;24.37;45.51;101781.34;5029728;28;20067;-71
2023/06/28 05:05:42;;;;;;;6.00;1.83;;;;;;;24.34;45.22;101770.97;5030621;28;20038;-69
2023/06/28 05:08:09;;;;;;;5.40;1.65;;;;;;;24.32;45.47;101770.28;5031099;28;20128;-71
2023/06/28 05:10:36;;;;;;;5.22;1.65;;;;;;;24.34;45.65;101781.63;5030392;28;20482;-70
2023/06/28 05:13:01;;;;;;;4.80;1.88;;;;;;;24.34;45.52;101778.97;5030366;28;20065;-68
2023/06/28 05:15:32;;;;;;;3.20;1.60;;;;;;;24.34;45.30;101779.84;5029882;28;20061;-70
2023/06/28 05:17:57;;;;;;;4.50;1.70;;;;;;;24.34;45.32;101787.81;5028884;28;20026;-71
2023/06/28 05:20:22;;;;;;;4.35;1.60;;;;;;;24.35;45.36;101791.31;5029528;28;20390;-69
2023/06/28 05:22:48;;;;;;;5.07;1.80;;;;;;;24.33;45.93;101787.97;5030880;28;20434;-70
2023/06/28 05:25:14;;;;;;;3.40;1.45;;;;;;;24.34;45.58;101790.50;5030983;28;20065;-70
2023/06/28 05:27:40;;;;;;;5.30;1.83;;;;;;;24.34;45.85;101793.16;5030018;28;20503;-70
2023/06/28 05:30:07;;;;;;;4.78;1.58;;;;;;;24.33;45.55;101783.47;5033892;28;20041;-70
2023/06/28 05:32:32;;;;;;;4.82;1.60;;;;;;;24.35;45.88;101783.34;5034335;28;20139;-70
2023/06/28 05:34:58;;;;;;;4.60;1.90;;;;;;;24.35;45.67;101778.00;5031704;28;20120;-71
2023/06/28 05:37:23;;;;;;;3.67;1.60;;;;;;;24.32;45.96;101776.44;5033266;28;20033;-70
2023/06/28 05:39:48;;;;;;;4.13;1.70;;;;;;;24.33;45.85;101786.13;5033581;28;20041;-71
2023/06/28 05:42:13;;;;;;;5.73;1.83;;;;;;;24.33;45.78;101775.47;5033925;28;20037;-69
2023/06/28 05:44:39;;;;;;;4.35;1.65;;;;;;;24.33;45.61;101777.31;5033093;28;20780;-69
2023/06/28 05:47:04;;;;;;;5.72;1.80;;;;;;;24.34;45.49;101770.97;5032963;28;20036;-71
2023/06/28 05:49:31;;;;;;;4.43;1.77;;;;;;;24.32;45.67;101763.13;5032773;28;20510;-70
2023/06/28 05:51:57;;;;;;;4.90;1.63;;;;;;;24.32;45.98;101765.81;5032915;28;20468;-71
2023/06/28 05:54:22;;;;;;;5.10;2.10;;;;;;;24.33;45.94;101761.34;5030453;28;20029;-70
2023/06/28 05:56:47;;;;;;;4.47;1.98;;;;;;;24.33;45.82;101764.81;5033067;28;20033;-69
2023/06/28 05:59:13;;;;;;;4.10;1.60;;;;;;;24.30;45.68;101761.63;5033481;28;20045;-70
2023/06/28 06:01:38;;;;;;;4.60;1.70;;;;;;;24.32;45.70;101759.66;5033073;28;20249;-71
2023/06/28 06:04:03;;;;;;;4.43;1.80;;;;;;;24.31;45.81;101758.81;5032814;28;20116;-70
2023/06/28 06:06:29;;;;;;;5.30;1.52;;;;;;;24.33;46.10;101767.50;5032005;28;20030;-70
2023/06/28 06:08:54;;;;;;;5.25;2.00;;;;;;;24.31;46.17;101764.13;5031749;28;20041;-69
2023/06/28 06:11:19;;;;;;;3.50;1.55;;;;;;;24.32;46.31;101765.81;5031959;28;20040;-70
2023/06/28 06:13:45;;;;;;;4.60;1.90;;;;;;;24.32;46.25;101762.31;5032456;28;20431;-70
2023/06/28 06:16:10;;;;;;;5.80;2.58;;;;;;;24.30;46.75;101766.94;5030135;28;20522;-70
2023/06/28 06:18:39;;;;;;;8.00;3.05;;;;;;;24.19;47.95;101770.59;5032017;28;20105;-70
2023/06/28 06:21:05;;;;;;;7.70;3.20;;;;;;;24.07;48.70;101767.28;5032371;28;20029;-71
2023/06/28 06:23:30;;;;;;;7.38;3.00;;;;;;;23.99;48.80;101764.44;5032495;28;20033;-69
2023/06/28 06:25:55;;;;;;;6.15;3.35;;;;;;;23.87;49.25;101761.09;5031742;28;20041;-72
2023/06/28 06:28:21;;;;;;;6.40;3.00;;;;;;;23.81;48.95;101774.94;5032655;28;20148;-67
2023/06/28 06:30:46;;;;;;;8.60;3.38;;;;;;;23.74;48.22;101774.66;5032723;28;20045;-68
2023/06/28 06:33:11;;;;;;;8.05;3.42;;;;;;;23.65;49.52;101770.16;5033061;28;20024;-66
2023/06/28 06:35:37;;;;;;;8.38;3.53;;;;;;;23.59;48.83;101768.06;5032491;28;20041;-70
2023/06/28 06:38:02;;;;;;;7.78;3.20;;;;;;;23.52;49.20;101773.94;5031644;28;20493;-67
2023/06/28 06:40:27;;;;;;;9.50;3.25;;;;;;;23.44;50.40;101771.13;5032841;28;20037;-68
2023/06/28 06:42:53;;;;;;;7.50;3.33;;;;;;;23.38;49.78;101771.66;5031799;28;20167;-70
2023/06/28 06:45:19;;;;;;;7.78;3.17;;;;;;;23.30;49.89;101768.88;5032788;28;20033;-68
2023/06/28 06:47:45;;;;;;;7.03;3.15;;;;;;;23.26;50.73;101776.28;5032616;28;20032;-70
2023/06/28 06:50:11;;;;;;;9.43;3.53;;;;;;;23.21;51.26;101769.66;5032806;28;20040;-68
2023/06/28 06:52:40;;;;;;;6.65;3.30;;;;;;;23.16;51.42;101767.41;5032199;28;20037;-68
2023/06/28 06:55:05;;;;;;;7.78;3.35;;;;;;;23.14;51.34;101774.69;5031898;28;20627;-67
2023/06/28 06:57:31;;;;;;;6.13;3.20;;;;;;;23.09;51.14;101772.44;5032370;28;20037;-68
2023/06/28 06:59:56;;;;;;;6.80;3.58;;;;;;;23.07;51.15;101776.19;5031639;28;20042;-68
2023/06/28 07:02:22;;;;;;;6.38;3.30;;;;;;;23.02;51.05;101771.28;5032297;28;20036;-67
2023/06/28 07:04:48;;;;;;;6.00;3.05;;;;;;;23.01;51.72;101781.06;5032556;28;20033;-67
2023/06/28 07:07:13;;;;;;;7.13;3.30;;;;;;;23.01;51.81;101785.53;5032001;28;20144;-67
2023/06/28 07:09:38;;;;;;;7.75;3.47;;;;;;;22.99;51.82;101788.34;5032388;28;20034;-68
2023/06/28 07:12:04;;;;;;;10.93;3.55;;;;;;;22.97;51.90;101787.63;5031570;28;20128;-67
2023/06/28 07:14:30;;;;;;;7.05;3.10;;;;;;;22.96;51.79;101793.09;5031983;28;20037;-67
2023/06/28 07:16:55;;;;;;;7.80;3.33;;;;;;;22.94;51.66;101787.03;5032193;28;20420;-67
2023/06/28 07:19:20;;;;;;;6.05;3.00;;;;;;;22.92;51.24;101784.53;5031528;28;20508;-72
2023/06/28 07:21:46;;;;;;;9.13;3.17;;;;;;;22.90;51.66;101794.44;5030158;28;20035;-68
2023/06/28 07:24:11;;;;;;;6.38;2.80;;;;;;;22.89;50.81;101797.25;5031711;28;20033;-68
2023/06/28 07:26:36;;;;;;;7.55;3.20;;;;;;;22.84;50.52;101789.66;5031001;28;20029;-67
2023/06/28 07:29:02;;;;;;;6.82;3.10;;;;;;;22.83;50.97;101794.16;5031567;28;20046;-67
2023/06/28 07:31:27;;;;;;;6.43;2.50;;;;;;;22.75;51.51;101788.66;5031563;28;20025;-66
2023/06/28 07:33:53;;;;;;;5.72;2.63;;;;;;;22.71;52.17;101791.72;5031679;28;20089;-68
2023/06/28 07:36:18;;;;;;;6.87;2.90;;;;;;;22.64;52.09;101789.56;5031287;28;20071;-68
2023/06/28 07:38:43;;;;;;;6.32;2.90;;;;;;;22.57;52.96;101787.56;5031512;28;20777;-64
2023/06/28 07:41:09;;;;;;;6.93;2.90;;;;;;;22.50;51.81;101789.09;5031612;28;20060;-68
2023/06/28 07:43:34;;;;;;;6.65;2.85;;;;;;;22.53;51.91;101789.66;5031783;28;20025;-68
2023/06/28 07:46:00;;;;;;;5.78;2.40;;;;;;;22.58;52.01;101781.28;5031640;28;20090;-68
2023/06/28 07:48:26;;;;;;;6.70;2.28;;;;;;;22.66;52.31;101786.78;5029866;28;20045;-71
2023/06/28 07:50:51;;;;;;;6.18;2.28;;;;;;;22.76;52.27;101787.66;5031080;28;20040;-72
2023/06/28 07:53:17;;;;;;;5.28;2.10;;;;;;;22.85;52.06;101793.19;5030988;28;20029;-72
2023/06/28 07:55:42;;;;;;;8.45;2.40;;;;;;;22.94;51.56;101792.34;5021946;28;20456;-68
2023/06/28 07:58:07;;;;;;;9.90;2.83;;;;;;;22.97;51.45;101778.78;5030703;28;20103;-70
2023/06/28 08:00:33;;;;;;;7.82;2.70;;;;;;;23.07;51.05;101785.00;5031609;28;20048;-68
2023/06/28 08:02:58;;;;;;;5.00;2.20;;;;;;;23.12;51.03;101788.13;5030725;28;20407;-68
2023/06/28 08:05:24;;;;;;;4.85;2.10;;;;;;;23.22;50.70;101789.97;5028708;28;20036;-69
2023/06/28 08:07:55;;;;;;;7.18;2.67;;;;;;;23.24;50.85;101790.69;5030365;28;20036;-65
2023/06/28 08:10:22;;;;;;;6.93;2.28;;;;;;;23.31;50.94;101786.50;5030693;28;20033;-66
2023/06/28 08:12:47;;;;;;;7.22;2.03;;;;;;;23.35;51.07;101791.41;5030711;28;20467;-66
2023/06/28 08:15:13;;;;;;;7.35;2.13;;;;;;;23.37;50.63;101785.97;5030011;28;20090;-67
2023/06/28 08:17:38;;;;;;;6.45;2.22;;;;;;;23.43;50.57;101789.88;5029438;28;20108;-65
2023/06/28 08:20:05;;;;;;;4.70;2.03;;;;;;;23.45;50.55;101794.09;5030459;28;20060;-67
2023/06/28 08:22:30;;;;;;;5.38;2.10;;;;;;;23.46;50.42;101784.28;5029302;28;20886;-68
2023/06/28 08:24:55;;;;;;;5.70;1.98;;;;;;;23.50;50.46;101783.88;5029875;28;20037;-64
2023/06/28 08:27:21;;;;;;;4.28;1.80;;;;;;;23.54;50.52;101782.63;5029947;28;20099;-63
2023/06/28 08:29:46;;;;;;;7.28;2.10;;;;;;;23.56;50.21;101777.19;5029781;28;20037;-63
2023/06/28 08:32:12;;;;;;;6.27;2.13;;;;;;;23.59;50.36;101784.03;5030231;28;20057;-67
2023/06/28 08:34:37;;;;;;;5.55;2.22;;;;;;;23.63;50.19;101780.94;5029708;28;20254;-64
2023/06/28 08:37:03;;;;;;;4.75;2.00;;;;;;;23.69;49.80;101785.72;5029575;28;20037;-67
2023/06/28 08:39:29;;;;;;;5.10;2.15;;;;;;;23.70;49.72;101784.75;5030422;28;20053;-67
2023/06/28 08:41:56;;;;;;;6.13;2.00;;;;;;;23.71;49.93;101793.56;5029537;28;20064;-69
2023/06/28 08:44:24;;;;;;;6.55;2.00;;;;;;;23.72;49.66;101793.44;5029931;28;20488;-68
2023/06/28 08:46:51;;;;;;;6.75;2.00;;;;;;;23.76;49.72;101787.84;5029659;28;20040;-68
2023/06/28 08:49:17;;;;;;;4.82;2.08;;;;;;;23.78;49.20;101784.03;5029891;28;20120;-68
2023/06/28 08:51:43;;;;;;;6.30;2.15;;;;;;;23.79;49.24;101780.41;5029456;28;20136;-66
2023/06/28 08:54:09;;;;;;;5.05;1.95;;;;;;;23.81;49.08;101782.94;5030385;28;20116;-68
2023/06/28 08:56:35;;;;;;;4.53;1.70;;;;;;;23.85;49.05;101787.03;5029060;28;20520;-66
2023/06/28 08:59:01;;;;;;;4.88;1.65;;;;;;;23.86;49.20;101794.03;5029700;28;20063;-65
2023/06/28 09:01:28;;;;;;;5.40;1.98;;;;;;;23.89;48.85;101783.09;5029809;28;20044;-65
2023/06/28 09:03:54;;;;;;;4.38;1.80;;;;;;;23.90;48.83;101780.28;5030623;28;20052;-65
2023/06/28 09:06:21;;;;;;;4.78;2.05;;;;;;;23.94;49.01;101788.84;5033558;28;20125;-66
2023/06/28 09:08:47;;;;;;;5.40;2.10;;;;;;;23.96;49.12;101786.03;5033332;28;20044;-66
2023/06/28 09:11:15;;;;;;;5.45;1.90;;;;;;;23.93;48.36;101773.84;5033024;28;20437;-65
2023/06/28 09:13:41;;;;;;;6.72;2.25;;;;;;;23.99;48.49;101781.28;5033145;28;20036;-65
2023/06/28 09:16:09;;;;;;;4.78;1.70;;;;;;;23.99;48.57;101767.97;5032948;28;20045;-65
2023/06/28 09:18:34;;;;;;;3.85;1.60;;;;;;;24.02;48.30;101772.16;5032747;28;20106;-66
2023/06/28 09:21:00;;;;;;;4.47;1.70;;;;;;;24.03;48.30;101773.84;5033208;28;20025;-65
2023/06/28 09:23:30;;;;;;;8.30;2.13;;;;;;;24.03;48.11;101780.00;5032807;28;20033;-65
2023/06/28 09:25:56;;;;;;;4.93;2.00;;;;;;;24.03;48.58;101764.03;5033130;28;20076;-64
2023/06/28 09:28:33;;;;;;;4.25;1.83;;;;;;;24.01;48.05;101768.66;5032561;28;20880;-63
2023/06/28 09:30:59;;;;;;;4.90;1.83;;;;;;;24.05;48.23;101766.56;5033404;28;20475;-64
2023/06/28 09:33:25;;;;;;;7.05;2.10;;;;;;;24.06;48.41;101771.72;5033376;28;20036;-65
2023/06/28 09:35:55;;;;;;;4.30;1.90;;;;;;;24.06;48.16;101760.25;5033744;28;20116;-65
2023/06/28 09:38:21;;;;;;;5.25;1.60;;;;;;;24.08;48.15;101766.25;5032995;28;20041;-66
2023/06/28 09:41:00;;;;;;;4.30;1.38;;;;;;;24.09;48.31;101765.28;5032600;28;20029;-65
2023/06/28 09:43:33;;;;;;;5.18;1.80;;;;;;;24.11;48.34;101778.47;5031864;28;20030;-65
2023/06/28 09:46:11;;;;;;;6.68;2.42;;;;;;;24.11;48.17;101773.97;5048314;28;20078;-66
2023/06/28 09:48:39;;;;;;;5.40;2.00;;;;;;;24.12;48.39;101764.19;5032443;28;20045;-64
2023/06/28 09:51:05;;;;;;;5.60;1.67;;;;;;;24.13;48.39;101771.16;5032601;28;20021;-64
2023/06/28 09:53:31;;;;;;;5.88;2.10;;;;;;;24.15;48.12;101769.19;5034123;28;20392;-64
2023/06/28 09:55:57;;;;;;;6.20;1.90;;;;;;;24.17;48.22;101767.25;5032579;28;20036;-70
2023/06/28 09:58:27;;;;;;;10.23;2.08;;;;;;;24.19;48.02;101765.28;5032173;28;20481;-67
2023/06/28 10:00:53;;;;;;;4.53;1.90;;;;;;;24.20;48.09;101762.47;5032666;28;20029;-67
2023/06/28 10:03:23;;;;;;;6.50;1.88;;;;;;;24.21;48.14;101757.97;5032470;28;20044;-67
2023/06/28 10:05:52;;;;;;;6.22;2.00;;;;;;;24.23;48.06;101759.53;5032804;28;20037;-66
2023/06/28 10:08:18;;;;;;;6.18;1.85;;;;;;;24.25;47.54;101757.56;5032576;28;20090;-67
2023/06/28 10:10:44;;;;;;;5.35;1.48;;;;;;;24.25;47.51;101749.56;5032311;28;20029;-66
2023/06/28 10:13:13;;;;;;;5.28;1.73;;;;;;;24.22;47.59;101755.16;5032365;28;20036;-65
2023/06/28 10:15:47;;;;;;;7.00;2.00;;;;;;;24.25;48.22;101757.56;5031604;28;20095;-68
2023/06/28 10:18:15;;;;;;;5.43;1.95;;;;;;;24.29;47.64;101749.28;5031111;28;20148;-68
2023/06/28 10:20:41;;;;;;;8.88;2.00;;;;;;;24.28;47.82;101751.09;5032641;28;20064;-64
2023/06/28 10:23:10;;;;;;;6.80;2.08;;;;;;;24.31;47.61;101752.63;5031464;28;20132;-64
2023/06/28 10:25:35;;;;;;;5.00;1.92;;;;;;;24.30;46.98;101751.78;5031226;28;20390;-64
2023/06/28 10:28:01;;;;;;;6.68;2.03;;;;;;;24.32;47.12;101743.66;5031936;28;20041;-64
2023/06/28 10:30:27;;;;;;;7.78;2.25;;;;;;;24.31;46.92;101747.28;5032526;28;20040;-64
2023/06/28 10:32:53;;;;;;;7.75;2.00;;;;;;;24.31;47.06;101747.28;5032908;28;20091;-64
2023/06/28 10:35:20;;;;;;;5.55;1.70;;;;;;;24.31;47.28;101747.28;5033107;28;20044;-65
2023/06/28 10:37:46;;;;;;;4.38;1.77;;;;;;;24.31;47.05;101747.28;5032624;28;20517;-63
2023/06/28 10:40:12;;;;;;;5.78;1.85;;;;;;;24.29;46.86;101744.78;5032106;28;20025;-63
2023/06/28 10:42:39;;;;;;;7.03;1.85;;;;;;;24.27;47.43;101744.94;5032586;28;20492;-63
2023/06/28 10:45:04;;;;;;;5.03;1.92;;;;;;;24.26;47.21;101743.25;5032503;28;20112;-63
2023/06/28 10:47:33;;;;;;;5.05;1.88;;;;;;;24.25;46.85;101746.91;5031793;28;20112;-65
2023/06/28 10:50:12;;;;;;;6.47;1.95;;;;;;;24.24;47.18;101742.56;5031408;28;21291;-64
2023/06/28 10:52:48;;;;;;;5.88;1.85;;;;;;;24.26;46.93;101751.25;5032600;28;20041;-63
2023/06/28 10:55:18;;;;;;;6.22;1.95;;;;;;;24.25;47.32;101741.56;5031007;28;20048;-64
2023/06/28 10:57:43;;;;;;;8.15;2.10;;;;;;;24.25;47.29;101740.75;5029054;28;21059;-64
2023/06/28 11:00:34;;;;;;;6.57;1.83;;;;;;;24.25;46.40;101741.56;5032509;28;20545;-64
2023/06/28 11:03:02;;;;;;;5.13;1.98;;;;;;;24.24;46.36;101733.72;5030042;28;20446;-65
2023/06/28 11:05:45;;;;;;;5.18;2.00;;;;;;;24.24;46.80;101742.56;5030510;28;20041;-63
2023/06/28 11:08:14;;;;;;;5.93;1.88;;;;;;;24.26;46.54;101727.28;5031354;28;20043;-62
2023/06/28 11:10:48;;;;;;;7.00;2.15;;;;;;;24.24;46.54;101718.59;5031411;28;20041;-63
2023/06/28 11:13:40;;;;;;;5.70;1.85;;;;;;;24.23;46.49;101708.09;5031910;28;20036;-62
2023/06/28 11:16:09;;;;;;;5.55;1.90;;;;;;;24.23;46.36;101714.25;5027067;28;20100;-63
2023/06/28 11:18:36;;;;;;;8.07;2.38;;;;;;;24.21;46.82;101710.91;5030735;28;20057;-63
2023/06/28 11:21:02;;;;;;;5.97;1.75;;;;;;;24.21;47.07;101723.34;5031991;28;20096;-62